createdAt,value
2019-01-20T00:02:12.335Z,10.73
2019-01-20T00:04:41.619Z,12.00
2019-01-20T00:07:10.789Z,11.43
2019-01-20T00:09:42.782Z,7.27
2019-01-20T00:12:22.069Z,10.95
2019-01-20T00:14:53.062Z,14.10
2019-01-20T00:17:27.321Z,11.70
2019-01-20T00:19:59.882Z,12.40
2019-01-20T00:22:29.140Z,6.43
2019-01-20T00:24:58.381Z,10.87
2019-01-20T00:27:27.931Z,11.90
2019-01-20T00:29:57.099Z,9.70
2019-01-20T00:32:26.271Z,10.38
2019-01-20T00:34:55.510Z,10.32
2019-01-20T00:37:24.698Z,11.03
2019-01-20T00:39:55.516Z,10.77
2019-01-20T00:42:27.020Z,12.33
2019-01-20T00:45:02.927Z,16.33
2019-01-20T00:47:36.838Z,15.93
2019-01-20T00:50:07.198Z,11.28
2019-01-20T00:52:36.772Z,9.13
2019-01-20T00:55:08.762Z,9.60
2019-01-20T00:57:38.721Z,13.67
2019-01-20T01:00:16.025Z,11.88
2019-01-20T01:02:45.339Z,10.05
2019-01-20T01:05:15.068Z,10.63
2019-01-20T01:07:46.179Z,8.67
2019-01-20T01:10:15.636Z,12.50
2019-01-20T01:12:46.281Z,9.35
2019-01-20T01:15:16.854Z,10.63
2019-01-20T01:17:46.086Z,12.93
2019-01-20T01:20:17.509Z,11.10
2019-01-20T01:22:47.111Z,14.60
2019-01-20T01:25:16.966Z,9.68
2019-01-20T01:27:46.981Z,14.23
2019-01-20T01:30:18.537Z,12.27
2019-01-20T01:32:47.747Z,12.67
2019-01-20T01:35:17.240Z,8.27
2019-01-20T01:37:46.517Z,11.80
2019-01-20T01:40:16.729Z,10.53
2019-01-20T01:42:46.258Z,12.57
2019-01-20T01:45:18.377Z,11.03
2019-01-20T01:47:48.074Z,14.80
2019-01-20T01:50:18.857Z,10.72
2019-01-20T01:52:49.328Z,10.93
2019-01-20T01:55:21.049Z,11.10
2019-01-20T01:57:50.259Z,13.15
2019-01-20T02:00:30.069Z,12.68
2019-01-20T02:03:00.077Z,11.57
2019-01-20T02:05:30.324Z,15.63
2019-01-20T02:08:00.786Z,13.57
2019-01-20T02:10:32.074Z,12.47
2019-01-20T02:13:01.658Z,11.10
2019-01-20T02:15:30.896Z,14.33
2019-01-20T02:18:00.270Z,16.90
2019-01-20T02:20:29.823Z,11.70
2019-01-20T02:22:59.750Z,14.70
2019-01-20T02:25:29.840Z,11.37
2019-01-20T02:27:59.460Z,14.30
2019-01-20T02:30:30.277Z,12.93
2019-01-20T02:32:59.514Z,11.43
2019-01-20T02:35:30.090Z,14.77
2019-01-20T02:38:00.461Z,14.67
2019-01-20T02:40:29.684Z,17.17
2019-01-20T02:43:01.143Z,13.58
2019-01-20T02:45:30.721Z,12.55
2019-01-20T02:48:00.190Z,11.20
2019-01-20T02:50:29.703Z,15.27
2019-01-20T02:52:58.977Z,13.83
2019-01-20T02:55:28.237Z,12.98
2019-01-20T02:57:57.710Z,13.77
2019-01-20T03:00:26.935Z,12.57
2019-01-20T03:03:01.266Z,15.55
2019-01-20T03:05:30.506Z,15.70
2019-01-20T03:07:59.676Z,17.27
2019-01-20T03:10:28.912Z,13.10
2019-01-20T03:12:58.451Z,13.15
2019-01-20T03:15:29.377Z,13.43
2019-01-20T03:17:58.606Z,15.30
2019-01-20T03:20:27.820Z,14.03
2019-01-20T03:22:57.084Z,13.90
2019-01-20T03:25:26.373Z,15.27
2019-01-20T03:27:55.488Z,15.47
2019-01-20T03:30:24.880Z,16.20
2019-01-20T03:32:54.384Z,13.90
2019-01-20T03:35:25.177Z,14.97
2019-01-20T03:37:54.711Z,12.53
2019-01-20T03:40:23.921Z,13.73
2019-01-20T03:42:53.175Z,15.33
2019-01-20T03:45:22.434Z,15.85
2019-01-20T03:47:51.862Z,14.87
2019-01-20T03:50:21.051Z,15.00
2019-01-20T03:52:51.019Z,14.95
2019-01-20T03:55:22.569Z,12.55
2019-01-20T03:57:52.113Z,15.77
2019-01-20T04:00:24.996Z,15.70
2019-01-20T04:03:04.236Z,16.70
2019-01-20T04:05:33.976Z,16.97
2019-01-20T04:08:04.977Z,15.67
2019-01-20T04:10:34.529Z,14.25
2019-01-20T04:13:04.003Z,16.50
2019-01-20T04:15:34.541Z,16.70
2019-01-20T04:18:05.157Z,14.87
2019-01-20T04:20:35.535Z,16.67
2019-01-20T04:23:07.058Z,14.87
2019-01-20T04:25:37.190Z,14.77
2019-01-20T04:28:33.827Z,15.72
2019-01-20T04:31:12.205Z,15.27
2019-01-20T04:33:47.359Z,16.83
2019-01-20T04:36:26.284Z,14.03
2019-01-20T04:39:02.932Z,18.60
2019-01-20T04:41:40.083Z,21.70
2019-01-20T04:44:20.084Z,17.27
2019-01-20T04:46:49.509Z,15.67
2019-01-20T04:49:19.519Z,18.70
2019-01-20T04:51:48.968Z,14.50
2019-01-20T04:54:19.684Z,14.63
2019-01-20T04:56:49.123Z,16.00
2019-01-20T04:59:18.911Z,13.25
2019-01-20T05:01:48.772Z,11.80
2019-01-20T05:04:18.592Z,18.32
2019-01-20T05:06:47.938Z,25.00
2019-01-20T05:09:18.000Z,15.03
2019-01-20T05:11:48.326Z,16.42
2019-01-20T05:14:17.743Z,16.62
2019-01-20T05:16:47.713Z,19.25
2019-01-20T05:19:17.127Z,14.80
2019-01-20T05:21:46.611Z,13.83
2019-01-20T05:24:16.095Z,15.98
2019-01-20T05:26:45.573Z,14.55
2019-01-20T05:29:15.089Z,15.68
2019-01-20T05:31:44.503Z,15.50
2019-01-20T05:34:13.973Z,12.47
2019-01-20T05:36:43.718Z,16.67
2019-01-20T05:39:13.546Z,19.77
2019-01-20T05:41:42.999Z,13.90
2019-01-20T05:44:12.867Z,20.67
2019-01-20T05:46:42.303Z,12.78
2019-01-20T05:49:11.797Z,20.43
2019-01-20T05:51:41.650Z,17.17
2019-01-20T05:54:11.184Z,17.10
2019-01-20T05:56:40.995Z,17.40
2019-01-20T05:59:10.422Z,13.68
2019-01-20T06:01:40.166Z,19.20
2019-01-20T06:04:09.555Z,14.17
2019-01-20T06:06:38.850Z,14.97
2019-01-20T06:09:08.855Z,17.73
2019-01-20T06:11:44.749Z,18.93
2019-01-20T06:14:15.222Z,17.00
2019-01-20T06:16:44.439Z,18.50
2019-01-20T06:19:15.649Z,17.03
2019-01-20T06:21:45.392Z,15.43
2019-01-20T06:24:17.380Z,19.10
2019-01-20T06:26:48.615Z,18.13
2019-01-20T06:29:21.707Z,20.50
2019-01-20T06:31:52.787Z,16.40
2019-01-20T06:34:31.567Z,20.43
2019-01-20T06:37:02.472Z,19.50
2019-01-20T06:39:34.907Z,14.55
2019-01-20T06:42:18.032Z,15.80
2019-01-20T06:44:47.173Z,15.13
2019-01-20T06:47:17.003Z,15.30
2019-01-20T06:49:46.456Z,24.52
2019-01-20T06:52:16.054Z,24.85
2019-01-20T06:54:45.284Z,27.83
2019-01-20T06:57:14.444Z,29.13
2019-01-20T06:59:46.580Z,35.97
2019-01-20T07:02:15.995Z,34.40
2019-01-20T07:04:45.771Z,27.42
2019-01-20T07:07:15.464Z,35.73
2019-01-20T07:09:44.651Z,29.87
2019-01-20T07:12:13.812Z,27.77
2019-01-20T07:14:43.246Z,22.80
2019-01-20T07:17:12.460Z,24.70
2019-01-20T07:19:41.996Z,22.30
2019-01-20T07:22:11.193Z,20.70
2019-01-20T07:24:40.384Z,19.62
2019-01-20T07:27:09.845Z,16.70
2019-01-20T07:29:40.459Z,18.67
2019-01-20T07:32:09.700Z,19.27
2019-01-20T07:34:38.842Z,18.00
2019-01-20T07:37:08.052Z,20.50
2019-01-20T07:39:37.397Z,22.97
2019-01-20T07:42:06.932Z,21.27
2019-01-20T07:44:37.025Z,17.53
2019-01-20T07:47:07.439Z,19.77
2019-01-20T07:49:36.731Z,19.17
2019-01-20T07:52:05.968Z,19.23
2019-01-20T07:54:35.535Z,19.10
2019-01-20T07:57:06.856Z,24.07
2019-01-20T07:59:36.303Z,20.67
2019-01-20T08:02:05.579Z,24.17
2019-01-20T08:04:34.831Z,17.03
2019-01-20T08:07:04.590Z,21.00
2019-01-20T08:09:34.340Z,16.40
2019-01-20T08:12:06.920Z,19.62
2019-01-20T08:14:36.179Z,23.18
2019-01-20T08:17:06.781Z,19.13
2019-01-20T08:19:36.364Z,26.57
2019-01-20T08:22:06.357Z,17.37
2019-01-20T08:24:36.257Z,19.67
2019-01-20T08:27:05.617Z,22.10
2019-01-20T08:29:35.533Z,19.90
2019-01-20T08:32:04.831Z,19.52
2019-01-20T08:34:35.327Z,26.17
2019-01-20T08:37:04.634Z,32.27
2019-01-20T08:39:34.135Z,23.85
2019-01-20T08:42:05.301Z,24.98
2019-01-20T08:44:38.141Z,25.00
2019-01-20T08:47:20.427Z,22.80
2019-01-20T08:49:49.684Z,19.75
2019-01-20T08:52:19.394Z,21.60
2019-01-20T08:54:48.759Z,20.60
2019-01-20T08:57:18.264Z,19.50
2019-01-20T08:59:47.567Z,17.63
2019-01-20T09:02:18.342Z,18.37
2019-01-20T09:04:47.523Z,23.57
2019-01-20T09:07:16.756Z,26.97
2019-01-20T09:09:47.539Z,22.65
2019-01-20T09:12:17.163Z,23.47
2019-01-20T09:14:46.663Z,23.50
2019-01-20T09:17:19.744Z,21.77
2019-01-20T09:20:03.483Z,23.20
2019-01-20T09:22:32.763Z,26.97
2019-01-20T09:25:01.960Z,27.58
2019-01-20T09:27:31.248Z,29.63
2019-01-20T09:30:00.555Z,25.40
2019-01-20T09:32:36.120Z,24.17
2019-01-20T09:35:08.193Z,24.63
2019-01-20T09:37:38.837Z,23.60
2019-01-20T09:40:09.486Z,26.27
2019-01-20T09:42:53.543Z,26.27
2019-01-20T09:45:44.316Z,28.67
2019-01-20T09:48:16.318Z,25.50
2019-01-20T09:50:59.414Z,26.73
2019-01-20T09:53:36.155Z,27.30
2019-01-20T09:56:08.137Z,33.23
2019-01-20T09:58:38.607Z,27.62
2019-01-20T10:01:20.071Z,33.17
2019-01-20T10:03:49.691Z,26.57
2019-01-20T10:06:30.465Z,26.07
2019-01-20T10:09:08.811Z,24.63
2019-01-20T10:11:39.332Z,26.80
2019-01-20T10:14:10.468Z,35.17
2019-01-20T10:16:42.774Z,29.40
2019-01-20T10:19:21.076Z,30.82
2019-01-20T10:21:57.519Z,32.73
2019-01-20T10:24:39.189Z,25.67
2019-01-20T10:27:09.268Z,27.05
2019-01-20T10:29:41.404Z,30.17
2019-01-20T10:32:12.027Z,31.53
2019-01-20T10:34:44.387Z,31.20
2019-01-20T10:37:20.304Z,31.67
2019-01-20T10:39:57.507Z,28.30
2019-01-20T10:42:37.551Z,27.50
2019-01-20T10:45:18.026Z,38.20
2019-01-20T10:47:50.764Z,31.17
2019-01-20T10:50:32.869Z,29.63
2019-01-20T10:53:12.461Z,31.87
2019-01-20T10:55:46.898Z,31.17
2019-01-20T10:58:26.034Z,37.50
2019-01-20T11:00:59.823Z,35.47
2019-01-20T11:03:34.221Z,26.77
2019-01-20T11:06:16.028Z,34.73
2019-01-20T11:08:51.212Z,28.70
2019-01-20T11:11:26.800Z,28.07
2019-01-20T11:13:59.356Z,31.95
2019-01-20T11:16:48.109Z,28.43
2019-01-20T11:19:24.814Z,31.40
2019-01-20T11:22:16.295Z,31.53
2019-01-20T11:24:49.386Z,26.17
2019-01-20T11:27:22.032Z,25.50
2019-01-20T11:29:51.552Z,27.83
2019-01-20T11:32:22.759Z,22.98
2019-01-20T11:34:58.822Z,27.07
2019-01-20T11:37:34.155Z,27.80
2019-01-20T11:40:13.536Z,23.42
2019-01-20T11:42:43.468Z,22.80
2019-01-20T11:45:18.733Z,25.37
2019-01-20T11:47:47.999Z,24.30
2019-01-20T11:50:18.233Z,24.90
2019-01-20T11:52:49.545Z,23.33
2019-01-20T11:55:23.713Z,23.47
2019-01-20T11:57:55.498Z,22.80
2019-01-20T12:00:30.211Z,24.50
2019-01-20T12:03:05.238Z,23.47
2019-01-20T12:05:36.503Z,26.77
2019-01-20T12:08:12.479Z,25.37
2019-01-20T12:10:50.770Z,24.75
2019-01-20T12:13:29.105Z,22.80
2019-01-20T12:15:58.358Z,22.87
2019-01-20T12:18:30.043Z,21.00
2019-01-20T12:20:59.246Z,22.83
2019-01-20T12:23:28.532Z,22.50
2019-01-20T12:25:58.099Z,20.55
2019-01-20T12:28:27.342Z,23.00
2019-01-20T12:30:56.632Z,22.80
2019-01-20T12:33:26.944Z,21.87
2019-01-20T12:35:56.776Z,19.30
2019-01-20T12:38:33.644Z,22.70
2019-01-20T12:41:02.887Z,25.52
2019-01-20T12:43:36.886Z,20.52
2019-01-20T12:46:08.552Z,18.83
2019-01-20T12:48:41.145Z,18.70
2019-01-20T12:51:12.565Z,23.20
2019-01-20T12:53:41.768Z,22.07
2019-01-20T12:56:10.936Z,19.12
2019-01-20T12:58:41.409Z,21.97
2019-01-20T13:01:10.904Z,20.77
2019-01-20T13:03:40.278Z,18.20
2019-01-20T13:06:09.527Z,20.30
2019-01-20T13:08:39.037Z,21.00
2019-01-20T13:11:08.806Z,20.90
2019-01-20T13:13:38.352Z,19.90
2019-01-20T13:16:07.537Z,19.70
2019-01-20T13:18:36.175Z,25.05
2019-01-20T13:21:05.440Z,21.13
2019-01-20T13:23:35.381Z,19.87
2019-01-20T13:26:07.304Z,19.07
2019-01-20T13:28:36.467Z,19.40
2019-01-20T13:31:08.845Z,19.07
2019-01-20T13:33:38.413Z,22.13
2019-01-20T13:36:07.787Z,22.73
2019-01-20T13:38:37.092Z,21.62
2019-01-20T13:41:30.668Z,28.43
2019-01-20T13:44:00.382Z,22.60
2019-01-20T13:46:29.787Z,28.20
2019-01-20T13:48:59.101Z,19.77
2019-01-20T13:51:29.188Z,19.57
2019-01-20T13:53:58.464Z,21.93
2019-01-20T13:56:28.127Z,20.30
2019-01-20T13:59:00.283Z,21.83
2019-01-20T14:01:29.479Z,23.67
2019-01-20T14:03:58.739Z,23.40
2019-01-20T14:06:30.140Z,21.50
2019-01-20T14:09:03.662Z,22.40
2019-01-20T14:11:37.747Z,23.05
2019-01-20T14:14:11.954Z,20.37
2019-01-20T14:16:42.825Z,18.10
2019-01-20T14:19:14.189Z,22.93
2019-01-20T14:21:47.172Z,21.77
2019-01-20T14:24:17.796Z,21.77
2019-01-20T14:26:47.039Z,25.90
2019-01-20T14:29:16.299Z,24.70
2019-01-20T14:31:47.199Z,24.93
2019-01-20T14:34:16.477Z,26.27
2019-01-20T14:36:45.692Z,26.70
2019-01-20T14:39:55.174Z,29.57
2019-01-20T14:53:01.329Z,31.05
2019-01-20T14:55:37.667Z,29.37
2019-01-20T14:58:06.921Z,33.93
2019-01-20T15:00:38.120Z,31.20
2019-01-20T15:03:07.926Z,27.42
2019-01-20T15:05:38.211Z,28.50
2019-01-20T15:08:08.459Z,32.77
2019-01-20T15:10:37.751Z,33.43
2019-01-20T15:13:07.065Z,28.77
2019-01-20T15:15:42.255Z,32.40
2019-01-20T15:18:12.572Z,31.93
2019-01-20T15:20:42.059Z,28.70
2019-01-20T15:23:11.363Z,29.13
2019-01-20T15:25:40.898Z,29.07
2019-01-20T15:28:13.514Z,30.53
2019-01-20T15:30:42.698Z,32.73
2019-01-20T15:33:11.861Z,27.87
2019-01-20T15:35:41.062Z,28.70
2019-01-20T15:38:10.396Z,32.98
2019-01-20T15:40:40.209Z,31.30
2019-01-20T15:43:09.394Z,31.47
2019-01-20T15:45:38.613Z,30.65
2019-01-20T15:48:10.884Z,41.63
2019-01-20T15:50:45.093Z,52.83
2019-01-20T15:53:16.456Z,32.00
2019-01-20T15:55:45.674Z,32.47
2019-01-20T15:58:15.920Z,25.65
2019-01-20T16:00:45.243Z,26.77
2019-01-20T16:03:15.757Z,32.23
2019-01-20T16:05:49.114Z,34.63
2019-01-20T16:08:23.877Z,38.27
2019-01-20T16:10:55.173Z,30.37
2019-01-20T16:13:29.371Z,32.50
2019-01-20T16:15:58.551Z,36.13
2019-01-20T16:18:27.807Z,27.63
2019-01-20T16:20:57.799Z,28.32
2019-01-20T16:23:27.173Z,34.13
2019-01-20T16:25:56.507Z,32.27
2019-01-20T16:28:26.049Z,33.63
2019-01-20T16:30:55.283Z,29.90
2019-01-20T16:33:25.291Z,31.97
2019-01-20T16:36:01.608Z,32.60
2019-01-20T16:38:41.647Z,34.67
2019-01-20T16:41:02.821Z,37.70
2019-01-20T16:43:40.635Z,31.97
2019-01-20T16:46:13.031Z,33.70
2019-01-20T16:48:44.743Z,40.13
2019-01-20T16:51:14.310Z,35.35
2019-01-20T16:53:43.546Z,32.67
2019-01-20T16:56:12.743Z,38.20
2019-01-20T16:58:41.982Z,37.83
2019-01-20T17:01:11.515Z,35.48
2019-01-20T17:03:53.806Z,33.20
2019-01-20T17:06:23.003Z,33.23
2019-01-20T17:08:52.251Z,39.40
2019-01-20T17:11:21.403Z,32.23
2019-01-20T17:13:50.931Z,35.65
2019-01-20T17:16:20.183Z,41.00
2019-01-20T17:18:49.451Z,36.98
2019-01-20T17:21:18.665Z,33.28
2019-01-20T17:23:48.236Z,35.03
2019-01-20T17:26:17.655Z,34.00
2019-01-20T17:29:03.360Z,29.65
2019-01-20T17:31:29.463Z,32.45
2019-01-20T17:33:58.707Z,41.33
2019-01-20T17:36:27.911Z,40.63
2019-01-20T17:38:57.470Z,37.17
2019-01-20T17:41:31.890Z,36.67
2019-01-20T17:44:02.500Z,38.07
2019-01-20T17:46:42.473Z,29.98
2019-01-20T17:49:11.692Z,33.60
2019-01-20T17:51:43.649Z,37.48
2019-01-20T17:54:13.699Z,36.77
2019-01-20T17:56:50.455Z,32.77
2019-01-20T17:59:19.936Z,32.83
2019-01-20T18:01:53.524Z,36.23
2019-01-20T18:04:23.042Z,25.60
2019-01-20T18:06:52.226Z,30.12
2019-01-20T18:09:21.506Z,26.90
2019-01-20T18:11:51.183Z,34.97
2019-01-20T18:14:20.450Z,28.63
2019-01-20T18:16:49.953Z,23.87
2019-01-20T18:19:26.015Z,28.77
2019-01-20T18:21:55.923Z,32.90
2019-01-20T18:24:25.244Z,27.47
2019-01-20T18:26:54.436Z,29.40
2019-01-20T18:29:24.241Z,32.90
2019-01-20T18:31:54.991Z,31.60
2019-01-20T18:34:26.427Z,29.47
2019-01-20T18:36:57.413Z,29.87
2019-01-20T18:39:27.203Z,27.90
2019-01-20T18:41:57.176Z,29.75
2019-01-20T18:44:28.177Z,29.43
2019-01-20T18:46:57.605Z,29.73
2019-01-20T18:49:26.904Z,25.97
2019-01-20T18:51:59.073Z,30.47
2019-01-20T18:54:29.987Z,31.02
2019-01-20T18:57:00.361Z,29.43
2019-01-20T18:59:30.260Z,30.20
2019-01-20T19:01:59.753Z,35.10
2019-01-20T19:04:28.966Z,29.57
2019-01-20T19:06:58.229Z,29.07
2019-01-20T19:09:32.023Z,32.20
2019-01-20T19:12:01.382Z,29.80
2019-01-20T19:14:31.223Z,30.75
2019-01-20T19:17:00.531Z,37.43
2019-01-20T19:19:29.685Z,29.60
2019-01-20T19:21:58.862Z,28.45
2019-01-20T19:24:30.194Z,31.73
2019-01-20T19:27:13.930Z,31.17
2019-01-20T19:29:43.176Z,34.70
2019-01-20T19:32:15.711Z,32.57
2019-01-20T19:34:45.027Z,35.50
2019-01-20T19:37:14.207Z,28.55
2019-01-20T19:39:50.358Z,29.15
2019-01-20T19:42:14.494Z,28.60
2019-01-20T19:44:54.867Z,29.27
2019-01-20T19:47:26.873Z,28.87
2019-01-20T19:49:56.327Z,31.67
2019-01-20T19:52:25.690Z,24.35
2019-01-20T19:54:55.388Z,33.13
2019-01-20T19:57:24.827Z,31.87
2019-01-20T19:59:53.964Z,28.50
2019-01-20T20:02:23.486Z,28.92
2019-01-20T20:04:53.915Z,30.90
2019-01-20T20:07:23.252Z,31.40
2019-01-20T20:09:52.608Z,34.47
2019-01-20T20:12:22.166Z,32.45
2019-01-20T20:14:51.760Z,29.23
2019-01-20T20:17:21.151Z,31.87
2019-01-20T20:19:52.755Z,29.50
2019-01-20T20:22:53.275Z,26.65
2019-01-20T20:26:00.796Z,30.92
2019-01-20T20:29:16.955Z,29.90
2019-01-20T20:31:46.631Z,30.67
2019-01-20T20:34:16.031Z,26.63
2019-01-20T20:36:45.295Z,29.17
2019-01-20T20:39:14.963Z,28.57
2019-01-20T20:41:44.305Z,28.52
2019-01-20T20:44:13.574Z,27.70
2019-01-20T20:46:43.704Z,26.83
2019-01-20T20:49:12.850Z,30.72
2019-01-20T20:51:44.620Z,32.73
2019-01-20T20:54:21.313Z,31.00
2019-01-20T20:56:50.632Z,26.87
2019-01-20T20:59:20.134Z,32.67
2019-01-20T21:01:49.838Z,33.30
2019-01-20T21:04:19.008Z,34.73
2019-01-20T21:06:48.222Z,27.40
2019-01-20T21:09:17.443Z,33.57
2019-01-20T21:11:46.918Z,41.57
2019-01-20T21:14:16.512Z,43.20
2019-01-20T21:16:47.024Z,49.35
2019-01-20T21:19:20.406Z,43.25
2019-01-20T21:21:51.350Z,36.77
2019-01-20T21:24:20.847Z,35.70
2019-01-20T21:26:50.436Z,32.60
2019-01-20T21:29:20.843Z,38.50
2019-01-20T21:31:51.968Z,32.40
2019-01-20T21:34:21.650Z,33.40
2019-01-20T21:36:50.999Z,38.50
2019-01-20T21:39:20.467Z,38.80
2019-01-20T21:41:51.553Z,34.03
2019-01-20T21:44:31.231Z,36.95
2019-01-20T21:47:00.455Z,36.00
2019-01-20T21:49:30.019Z,33.70
2019-01-20T21:51:59.368Z,33.02
2019-01-20T21:54:28.785Z,35.53
2019-01-20T21:56:58.080Z,38.08
2019-01-20T21:59:28.235Z,31.05
2019-01-20T22:01:57.873Z,38.80
2019-01-20T22:04:27.229Z,38.73
2019-01-20T22:06:56.479Z,35.83
2019-01-20T22:09:25.715Z,34.23
2019-01-20T22:11:55.207Z,36.23
2019-01-20T22:14:24.688Z,36.10
2019-01-20T22:16:54.314Z,31.33
2019-01-20T22:19:23.719Z,35.85
2019-01-20T22:22:01.418Z,34.70
2019-01-20T22:24:30.634Z,35.30
2019-01-20T22:26:59.835Z,36.50
2019-01-20T22:29:29.026Z,41.30
2019-01-20T22:31:58.311Z,36.17
2019-01-20T22:34:28.353Z,31.50
2019-01-20T22:36:57.802Z,35.80
2019-01-20T22:39:27.486Z,36.17
2019-01-20T22:41:57.046Z,36.53
2019-01-20T22:44:27.294Z,32.58
2019-01-20T22:47:00.348Z,37.60
2019-01-20T22:49:28.104Z,37.30
2019-01-20T22:51:57.588Z,32.15
2019-01-20T22:54:27.228Z,39.33
2019-01-20T22:56:56.347Z,41.27
2019-01-20T22:59:25.555Z,38.30
2019-01-20T23:01:54.899Z,26.93
2019-01-20T23:04:24.317Z,35.05
2019-01-20T23:06:53.597Z,38.37
2019-01-20T23:09:23.050Z,35.40
2019-01-20T23:11:52.193Z,39.60
2019-01-20T23:14:22.555Z,36.97
2019-01-20T23:16:52.305Z,45.67
2019-01-20T23:19:24.097Z,42.27
2019-01-20T23:21:54.615Z,36.48
2019-01-20T23:24:23.856Z,42.98
2019-01-20T23:26:53.892Z,33.47
2019-01-20T23:29:23.082Z,37.43
2019-01-20T23:31:52.447Z,35.25
2019-01-20T23:34:23.343Z,38.23
2019-01-20T23:36:52.747Z,37.53
2019-01-20T23:39:22.019Z,34.50
2019-01-20T23:41:51.544Z,34.98
2019-01-20T23:44:20.867Z,36.28
2019-01-20T23:46:50.167Z,38.90
2019-01-20T23:49:19.656Z,46.13
2019-01-20T23:51:49.384Z,36.90
2019-01-20T23:54:19.013Z,36.37
2019-01-20T23:56:48.228Z,43.25
2019-01-20T23:59:17.776Z,40.60
